sensor_id;sensor_type;location;lat;lon;timestamp;temperature;humidity
14749;DHT22;7466;53.574;9.976;2022-12-07T00:01:19;3.20;99.90
14749;DHT22;7466;53.574;9.976;2022-12-07T00:03:47;3.20;99.90
14749;DHT22;7466;53.574;9.976;2022-12-07T00:06:16;3.20;99.90
14749;DHT22;7466;53.574;9.976;2022-12-07T00:08:44;3.20;99.90
14749;DHT22;7466;53.574;9.976;2022-12-07T00:11:14;3.20;99.90
14749;DHT22;7466;53.574;9.976;2022-12-07T00:13:43;3.20;99.90
14749;DHT22;7466;53.574;9.976;2022-12-07T00:16:12;3.20;99.90
14749;DHT22;7466;53.574;9.976;2022-12-07T00:18:40;3.20;99.90
14749;DHT22;7466;53.574;9.976;2022-12-07T00:21:09;3.20;99.90
14749;DHT22;7466;53.574;9.976;2022-12-07T00:23:37;3.20;99.90
14749;DHT22;7466;53.574;9.976;2022-12-07T00:26:05;3.20;99.90
14749;DHT22;7466;53.574;9.976;2022-12-07T00:28:32;3.20;99.90
14749;DHT22;7466;53.574;9.976;2022-12-07T00:31:03;3.30;99.90
14749;DHT22;7466;53.574;9.976;2022-12-07T00:33:31;3.30;99.90
14749;DHT22;7466;53.574;9.976;2022-12-07T00:35:58;3.30;99.90
14749;DHT22;7466;53.574;9.976;2022-12-07T00:38:28;3.30;99.90
14749;DHT22;7466;53.574;9.976;2022-12-07T00:40:56;3.30;99.90
14749;DHT22;7466;53.574;9.976;2022-12-07T00:43:23;3.30;99.90
14749;DHT22;7466;53.574;9.976;2022-12-07T00:45:50;3.30;99.90
14749;DHT22;7466;53.574;9.976;2022-12-07T00:48:18;3.30;99.90
14749;DHT22;7466;53.574;9.976;2022-12-07T00:50:45;3.30;99.90
14749;DHT22;7466;53.574;9.976;2022-12-07T00:53:12;3.40;99.90
14749;DHT22;7466;53.574;9.976;2022-12-07T00:55:41;3.40;99.90
14749;DHT22;7466;53.574;9.976;2022-12-07T00:58:08;3.40;99.90
14749;DHT22;7466;53.574;9.976;2022-12-07T01:00:36;3.40;99.90
14749;DHT22;7466;53.574;9.976;2022-12-07T01:03:03;3.40;99.90
14749;DHT22;7466;53.574;9.976;2022-12-07T01:05:32;3.40;99.90
14749;DHT22;7466;53.574;9.976;2022-12-07T01:07:59;3.40;99.90
14749;DHT22;7466;53.574;9.976;2022-12-07T01:10:26;3.40;99.90
14749;DHT22;7466;53.574;9.976;2022-12-07T01:12:53;3.40;99.90
14749;DHT22;7466;53.574;9.976;2022-12-07T01:15:20;3.40;99.90
14749;DHT22;7466;53.574;9.976;2022-12-07T01:17:47;3.40;99.90
14749;DHT22;7466;53.574;9.976;2022-12-07T01:20:14;3.40;99.90
14749;DHT22;7466;53.574;9.976;2022-12-07T01:22:43;3.30;99.90
14749;DHT22;7466;53.574;9.976;2022-12-07T01:25:11;3.30;99.90
14749;DHT22;7466;53.574;9.976;2022-12-07T01:27:38;3.30;99.90
14749;DHT22;7466;53.574;9.976;2022-12-07T01:30:06;3.40;99.90
14749;DHT22;7466;53.574;9.976;2022-12-07T01:32:36;3.30;99.90
14749;DHT22;7466;53.574;9.976;2022-12-07T01:35:04;3.30;99.90
14749;DHT22;7466;53.574;9.976;2022-12-07T01:37:34;3.30;99.90
14749;DHT22;7466;53.574;9.976;2022-12-07T01:40:04;3.30;99.90
14749;DHT22;7466;53.574;9.976;2022-12-07T01:42:32;3.30;99.90
14749;DHT22;7466;53.574;9.976;2022-12-07T01:45:33;3.30;99.90
14749;DHT22;7466;53.574;9.976;2022-12-07T01:48:04;3.30;99.90
14749;DHT22;7466;53.574;9.976;2022-12-07T01:50:35;3.30;99.90
14749;DHT22;7466;53.574;9.976;2022-12-07T01:53:05;3.30;99.90
14749;DHT22;7466;53.574;9.976;2022-12-07T01:55:35;3.30;99.90
14749;DHT22;7466;53.574;9.976;2022-12-07T01:58:03;3.20;99.90
14749;DHT22;7466;53.574;9.976;2022-12-07T02:00:30;3.20;99.90
14749;DHT22;7466;53.574;9.976;2022-12-07T02:03:05;3.30;99.90
14749;DHT22;7466;53.574;9.976;2022-12-07T02:05:34;3.20;99.90
14749;DHT22;7466;53.574;9.976;2022-12-07T02:08:02;3.20;99.90
14749;DHT22;7466;53.574;9.976;2022-12-07T02:10:31;3.10;99.90
14749;DHT22;7466;53.574;9.976;2022-12-07T02:13:01;3.10;99.90
14749;DHT22;7466;53.574;9.976;2022-12-07T02:15:37;3.10;99.90
14749;DHT22;7466;53.574;9.976;2022-12-07T02:18:13;3.10;99.90
14749;DHT22;7466;53.574;9.976;2022-12-07T02:20:49;3.10;99.90
14749;DHT22;7466;53.574;9.976;2022-12-07T02:23:45;3.00;99.90
14749;DHT22;7466;53.574;9.976;2022-12-07T02:29:34;3.00;99.90
14749;DHT22;7466;53.574;9.976;2022-12-07T02:32:06;3.00;99.90
14749;DHT22;7466;53.574;9.976;2022-12-07T02:34:42;2.90;99.90
14749;DHT22;7466;53.574;9.976;2022-12-07T02:37:29;2.90;99.90
14749;DHT22;7466;53.574;9.976;2022-12-07T02:40:02;2.90;99.90
14749;DHT22;7466;53.574;9.976;2022-12-07T02:42:35;2.90;99.90
14749;DHT22;7466;53.574;9.976;2022-12-07T02:45:05;2.90;99.90
14749;DHT22;7466;53.574;9.976;2022-12-07T02:47:34;2.80;99.90
14749;DHT22;7466;53.574;9.976;2022-12-07T02:50:03;2.80;99.90
14749;DHT22;7466;53.574;9.976;2022-12-07T02:52:31;2.80;99.90
14749;DHT22;7466;53.574;9.976;2022-12-07T02:54:59;2.80;99.90
14749;DHT22;7466;53.574;9.976;2022-12-07T02:57:43;2.80;99.90
14749;DHT22;7466;53.574;9.976;2022-12-07T03:00:16;2.80;99.90
14749;DHT22;7466;53.574;9.976;2022-12-07T03:02:52;2.70;99.90
14749;DHT22;7466;53.574;9.976;2022-12-07T03:05:38;2.70;99.90
14749;DHT22;7466;53.574;9.976;2022-12-07T03:08:13;2.70;99.90
14749;DHT22;7466;53.574;9.976;2022-12-07T03:10:48;2.70;99.90
14749;DHT22;7466;53.574;9.976;2022-12-07T03:13:23;2.60;99.90
14749;DHT22;7466;53.574;9.976;2022-12-07T03:15:57;2.60;99.90
14749;DHT22;7466;53.574;9.976;2022-12-07T03:18:28;2.60;99.90
14749;DHT22;7466;53.574;9.976;2022-12-07T03:21:01;2.60;99.90
14749;DHT22;7466;53.574;9.976;2022-12-07T03:23:31;2.60;99.90
14749;DHT22;7466;53.574;9.976;2022-12-07T03:26:00;2.50;99.90
14749;DHT22;7466;53.574;9.976;2022-12-07T03:28:31;2.50;99.90
14749;DHT22;7466;53.574;9.976;2022-12-07T03:31:04;2.40;99.90
14749;DHT22;7466;53.574;9.976;2022-12-07T03:33:41;2.50;99.90
14749;DHT22;7466;53.574;9.976;2022-12-07T03:36:12;2.40;99.90
14749;DHT22;7466;53.574;9.976;2022-12-07T03:38:47;2.40;99.90
14749;DHT22;7466;53.574;9.976;2022-12-07T03:41:20;2.40;99.90
14749;DHT22;7466;53.574;9.976;2022-12-07T03:43:48;2.40;99.90
14749;DHT22;7466;53.574;9.976;2022-12-07T03:46:22;2.40;99.90
14749;DHT22;7466;53.574;9.976;2022-12-07T03:48:56;2.30;99.90
14749;DHT22;7466;53.574;9.976;2022-12-07T03:51:28;2.30;99.90
14749;DHT22;7466;53.574;9.976;2022-12-07T03:54:02;2.30;99.90
14749;DHT22;7466;53.574;9.976;2022-12-07T03:56:35;2.30;99.90
14749;DHT22;7466;53.574;9.976;2022-12-07T03:59:02;2.30;99.90
14749;DHT22;7466;53.574;9.976;2022-12-07T04:01:31;2.20;99.90
14749;DHT22;7466;53.574;9.976;2022-12-07T04:03:58;2.20;99.90
14749;DHT22;7466;53.574;9.976;2022-12-07T04:06:25;2.20;99.90
14749;DHT22;7466;53.574;9.976;2022-12-07T04:08:52;2.20;99.90
14749;DHT22;7466;53.574;9.976;2022-12-07T04:11:19;2.20;99.90
14749;DHT22;7466;53.574;9.976;2022-12-07T04:13:45;2.20;99.90
14749;DHT22;7466;53.574;9.976;2022-12-07T04:16:31;2.20;99.90
14749;DHT22;7466;53.574;9.976;2022-12-07T04:18:58;2.20;99.90
14749;DHT22;7466;53.574;9.976;2022-12-07T04:21:25;2.10;99.90
14749;DHT22;7466;53.574;9.976;2022-12-07T04:23:54;2.10;99.90
14749;DHT22;7466;53.574;9.976;2022-12-07T04:26:21;2.10;99.90
14749;DHT22;7466;53.574;9.976;2022-12-07T04:28:47;2.10;99.90
14749;DHT22;7466;53.574;9.976;2022-12-07T04:31:14;2.10;99.90
14749;DHT22;7466;53.574;9.976;2022-12-07T04:33:42;2.00;99.90
14749;DHT22;7466;53.574;9.976;2022-12-07T04:36:09;2.00;99.90
14749;DHT22;7466;53.574;9.976;2022-12-07T04:38:36;2.10;99.90
14749;DHT22;7466;53.574;9.976;2022-12-07T04:41:05;2.00;99.90
14749;DHT22;7466;53.574;9.976;2022-12-07T04:43:32;2.00;99.90
14749;DHT22;7466;53.574;9.976;2022-12-07T04:45:59;2.00;99.90
14749;DHT22;7466;53.574;9.976;2022-12-07T04:48:26;2.00;99.90
14749;DHT22;7466;53.574;9.976;2022-12-07T04:50:54;1.90;99.90
14749;DHT22;7466;53.574;9.976;2022-12-07T04:53:21;1.90;99.90
14749;DHT22;7466;53.574;9.976;2022-12-07T04:55:49;1.90;99.90
14749;DHT22;7466;53.574;9.976;2022-12-07T04:58:15;1.90;99.90
14749;DHT22;7466;53.574;9.976;2022-12-07T05:00:43;1.80;99.90
14749;DHT22;7466;53.574;9.976;2022-12-07T05:03:09;1.90;99.90
14749;DHT22;7466;53.574;9.976;2022-12-07T05:05:39;1.80;99.90
14749;DHT22;7466;53.574;9.976;2022-12-07T05:08:09;1.80;99.90
14749;DHT22;7466;53.574;9.976;2022-12-07T05:10:36;1.80;99.90
14749;DHT22;7466;53.574;9.976;2022-12-07T05:13:02;1.80;99.90
14749;DHT22;7466;53.574;9.976;2022-12-07T05:15:29;1.80;99.90
14749;DHT22;7466;53.574;9.976;2022-12-07T05:17:56;1.80;99.90
14749;DHT22;7466;53.574;9.976;2022-12-07T05:20:23;1.80;99.90
14749;DHT22;7466;53.574;9.976;2022-12-07T05:22:50;1.80;99.90
14749;DHT22;7466;53.574;9.976;2022-12-07T05:25:18;1.80;99.90
14749;DHT22;7466;53.574;9.976;2022-12-07T05:27:45;1.80;99.90
14749;DHT22;7466;53.574;9.976;2022-12-07T05:30:13;1.80;99.90
14749;DHT22;7466;53.574;9.976;2022-12-07T05:32:40;1.80;99.90
14749;DHT22;7466;53.574;9.976;2022-12-07T05:35:09;1.80;99.90
14749;DHT22;7466;53.574;9.976;2022-12-07T05:37:36;1.80;99.90
14749;DHT22;7466;53.574;9.976;2022-12-07T05:40:03;1.70;99.90
14749;DHT22;7466;53.574;9.976;2022-12-07T05:42:33;1.80;99.90
14749;DHT22;7466;53.574;9.976;2022-12-07T05:45:00;1.80;99.90
14749;DHT22;7466;53.574;9.976;2022-12-07T05:47:27;1.80;99.90
14749;DHT22;7466;53.574;9.976;2022-12-07T05:49:53;1.80;99.90
14749;DHT22;7466;53.574;9.976;2022-12-07T05:52:21;1.80;99.90
14749;DHT22;7466;53.574;9.976;2022-12-07T05:54:47;1.80;99.90
14749;DHT22;7466;53.574;9.976;2022-12-07T05:57:14;1.80;99.90
14749;DHT22;7466;53.574;9.976;2022-12-07T05:59:43;1.80;99.90
14749;DHT22;7466;53.574;9.976;2022-12-07T06:02:11;1.70;99.90
14749;DHT22;7466;53.574;9.976;2022-12-07T06:04:40;1.70;99.90
14749;DHT22;7466;53.574;9.976;2022-12-07T06:07:07;1.80;99.90
14749;DHT22;7466;53.574;9.976;2022-12-07T06:09:34;1.70;99.90
14749;DHT22;7466;53.574;9.976;2022-12-07T06:12:02;1.70;99.90
14749;DHT22;7466;53.574;9.976;2022-12-07T06:14:48;1.70;99.90
14749;DHT22;7466;53.574;9.976;2022-12-07T06:17:15;1.70;99.90
14749;DHT22;7466;53.574;9.976;2022-12-07T06:19:42;1.80;99.90
14749;DHT22;7466;53.574;9.976;2022-12-07T06:22:10;1.90;99.90
14749;DHT22;7466;53.574;9.976;2022-12-07T06:24:38;2.00;99.90
14749;DHT22;7466;53.574;9.976;2022-12-07T06:27:05;2.10;99.90
14749;DHT22;7466;53.574;9.976;2022-12-07T06:29:32;2.00;99.90
14749;DHT22;7466;53.574;9.976;2022-12-07T06:32:00;2.00;99.90
14749;DHT22;7466;53.574;9.976;2022-12-07T06:34:27;2.00;99.90
14749;DHT22;7466;53.574;9.976;2022-12-07T06:36:54;2.00;99.90
14749;DHT22;7466;53.574;9.976;2022-12-07T06:39:25;2.00;99.90
14749;DHT22;7466;53.574;9.976;2022-12-07T06:41:52;2.00;99.90
14749;DHT22;7466;53.574;9.976;2022-12-07T06:44:20;2.10;99.90
14749;DHT22;7466;53.574;9.976;2022-12-07T06:46:47;2.10;99.90
14749;DHT22;7466;53.574;9.976;2022-12-07T06:49:15;2.10;99.90
14749;DHT22;7466;53.574;9.976;2022-12-07T06:51:43;2.20;99.90
14749;DHT22;7466;53.574;9.976;2022-12-07T06:54:11;2.20;99.90
14749;DHT22;7466;53.574;9.976;2022-12-07T06:56:38;2.20;99.90
14749;DHT22;7466;53.574;9.976;2022-12-07T06:59:06;2.30;99.90
14749;DHT22;7466;53.574;9.976;2022-12-07T07:01:34;2.30;99.90
14749;DHT22;7466;53.574;9.976;2022-12-07T07:04:02;2.30;99.90
14749;DHT22;7466;53.574;9.976;2022-12-07T07:06:30;2.20;99.90
14749;DHT22;7466;53.574;9.976;2022-12-07T07:08:57;2.20;99.90
14749;DHT22;7466;53.574;9.976;2022-12-07T07:11:24;2.20;99.90
14749;DHT22;7466;53.574;9.976;2022-12-07T07:13:50;2.20;99.90
14749;DHT22;7466;53.574;9.976;2022-12-07T07:16:17;2.20;99.90
14749;DHT22;7466;53.574;9.976;2022-12-07T07:18:44;2.20;99.90
14749;DHT22;7466;53.574;9.976;2022-12-07T07:21:11;2.20;99.90
14749;DHT22;7466;53.574;9.976;2022-12-07T07:23:40;2.20;99.90
14749;DHT22;7466;53.574;9.976;2022-12-07T07:26:09;2.20;99.90
14749;DHT22;7466;53.574;9.976;2022-12-07T07:28:36;2.20;99.90
14749;DHT22;7466;53.574;9.976;2022-12-07T07:31:03;2.20;99.90
14749;DHT22;7466;53.574;9.976;2022-12-07T07:33:30;2.20;99.90
14749;DHT22;7466;53.574;9.976;2022-12-07T07:35:59;2.20;99.90
14749;DHT22;7466;53.574;9.976;2022-12-07T07:38:26;2.20;99.90
14749;DHT22;7466;53.574;9.976;2022-12-07T07:40:54;2.20;99.90
14749;DHT22;7466;53.574;9.976;2022-12-07T07:43:21;2.20;99.90
14749;DHT22;7466;53.574;9.976;2022-12-07T07:45:49;2.20;99.90
14749;DHT22;7466;53.574;9.976;2022-12-07T07:48:16;2.20;99.90
14749;DHT22;7466;53.574;9.976;2022-12-07T07:50:43;2.20;99.90
14749;DHT22;7466;53.574;9.976;2022-12-07T07:53:10;2.30;99.90
14749;DHT22;7466;53.574;9.976;2022-12-07T07:55:36;2.30;99.90
14749;DHT22;7466;53.574;9.976;2022-12-07T07:58:05;2.30;99.90
14749;DHT22;7466;53.574;9.976;2022-12-07T08:00:31;2.30;99.90
14749;DHT22;7466;53.574;9.976;2022-12-07T08:02:58;2.30;99.90
14749;DHT22;7466;53.574;9.976;2022-12-07T08:05:25;2.40;99.90
14749;DHT22;7466;53.574;9.976;2022-12-07T08:07:52;2.40;99.90
14749;DHT22;7466;53.574;9.976;2022-12-07T08:10:20;2.40;99.90
14749;DHT22;7466;53.574;9.976;2022-12-07T08:12:47;2.40;99.90
14749;DHT22;7466;53.574;9.976;2022-12-07T08:15:32;2.40;99.90
14749;DHT22;7466;53.574;9.976;2022-12-07T08:18:01;2.50;99.90
14749;DHT22;7466;53.574;9.976;2022-12-07T08:20:30;2.50;99.90
14749;DHT22;7466;53.574;9.976;2022-12-07T08:22:57;2.50;99.90
14749;DHT22;7466;53.574;9.976;2022-12-07T08:25:24;2.60;99.90
14749;DHT22;7466;53.574;9.976;2022-12-07T08:27:51;2.70;99.90
14749;DHT22;7466;53.574;9.976;2022-12-07T08:30:19;2.70;99.90
14749;DHT22;7466;53.574;9.976;2022-12-07T08:32:48;2.80;99.90
14749;DHT22;7466;53.574;9.976;2022-12-07T08:35:15;2.80;99.90
14749;DHT22;7466;53.574;9.976;2022-12-07T08:37:42;2.80;99.90
14749;DHT22;7466;53.574;9.976;2022-12-07T08:40:10;2.80;99.90
14749;DHT22;7466;53.574;9.976;2022-12-07T08:42:40;2.90;99.90
14749;DHT22;7466;53.574;9.976;2022-12-07T08:45:11;2.90;99.90
14749;DHT22;7466;53.574;9.976;2022-12-07T08:47:42;2.90;99.90
14749;DHT22;7466;53.574;9.976;2022-12-07T08:50:11;2.90;99.90
14749;DHT22;7466;53.574;9.976;2022-12-07T08:52:40;3.00;99.90
14749;DHT22;7466;53.574;9.976;2022-12-07T08:55:09;3.00;99.90
14749;DHT22;7466;53.574;9.976;2022-12-07T08:57:36;3.00;99.90
14749;DHT22;7466;53.574;9.976;2022-12-07T09:00:05;3.00;99.90
14749;DHT22;7466;53.574;9.976;2022-12-07T09:02:32;3.10;99.90
14749;DHT22;7466;53.574;9.976;2022-12-07T09:04:58;3.00;99.90
14749;DHT22;7466;53.574;9.976;2022-12-07T09:07:27;3.10;99.90
14749;DHT22;7466;53.574;9.976;2022-12-07T09:09:54;3.20;99.90
14749;DHT22;7466;53.574;9.976;2022-12-07T09:12:21;3.20;99.90
14749;DHT22;7466;53.574;9.976;2022-12-07T09:14:48;3.30;99.90
14749;DHT22;7466;53.574;9.976;2022-12-07T09:17:15;3.30;99.90
14749;DHT22;7466;53.574;9.976;2022-12-07T09:19:41;3.30;99.90
14749;DHT22;7466;53.574;9.976;2022-12-07T09:22:09;3.40;99.90
14749;DHT22;7466;53.574;9.976;2022-12-07T09:24:37;3.40;99.90
14749;DHT22;7466;53.574;9.976;2022-12-07T09:27:04;3.40;99.90
14749;DHT22;7466;53.574;9.976;2022-12-07T09:29:31;3.40;99.90
14749;DHT22;7466;53.574;9.976;2022-12-07T09:31:57;3.40;99.90
14749;DHT22;7466;53.574;9.976;2022-12-07T09:34:25;3.40;99.90
14749;DHT22;7466;53.574;9.976;2022-12-07T09:36:52;3.50;99.90
14749;DHT22;7466;53.574;9.976;2022-12-07T09:39:20;3.50;99.90
14749;DHT22;7466;53.574;9.976;2022-12-07T09:41:48;3.60;99.90
14749;DHT22;7466;53.574;9.976;2022-12-07T09:44:20;3.70;99.90
14749;DHT22;7466;53.574;9.976;2022-12-07T09:46:48;3.80;99.90
14749;DHT22;7466;53.574;9.976;2022-12-07T09:49:18;3.80;99.90
14749;DHT22;7466;53.574;9.976;2022-12-07T09:51:46;3.80;99.90
14749;DHT22;7466;53.574;9.976;2022-12-07T09:54:14;3.80;99.90
14749;DHT22;7466;53.574;9.976;2022-12-07T09:56:41;3.80;99.90
14749;DHT22;7466;53.574;9.976;2022-12-07T09:59:14;3.90;99.90
14749;DHT22;7466;53.574;9.976;2022-12-07T10:01:42;4.00;99.90
14749;DHT22;7466;53.574;9.976;2022-12-07T10:04:13;4.10;99.90
14749;DHT22;7466;53.574;9.976;2022-12-07T10:06:41;4.10;99.90
14749;DHT22;7466;53.574;9.976;2022-12-07T10:09:11;4.00;99.90
14749;DHT22;7466;53.574;9.976;2022-12-07T10:11:57;4.00;99.90
14749;DHT22;7466;53.574;9.976;2022-12-07T10:14:27;4.10;99.90
14749;DHT22;7466;53.574;9.976;2022-12-07T10:16:54;4.10;99.90
14749;DHT22;7466;53.574;9.976;2022-12-07T10:19:25;4.10;99.90
14749;DHT22;7466;53.574;9.976;2022-12-07T10:22:14;4.00;99.90
14749;DHT22;7466;53.574;9.976;2022-12-07T10:24:42;4.00;99.90
14749;DHT22;7466;53.574;9.976;2022-12-07T10:27:19;4.10;99.90
14749;DHT22;7466;53.574;9.976;2022-12-07T10:29:52;4.10;99.90
14749;DHT22;7466;53.574;9.976;2022-12-07T10:32:31;4.10;99.90
14749;DHT22;7466;53.574;9.976;2022-12-07T10:35:21;4.10;99.90
14749;DHT22;7466;53.574;9.976;2022-12-07T10:37:48;4.20;99.90
14749;DHT22;7466;53.574;9.976;2022-12-07T10:40:28;4.20;99.90
14749;DHT22;7466;53.574;9.976;2022-12-07T10:43:04;4.20;99.90
14749;DHT22;7466;53.574;9.976;2022-12-07T10:45:35;4.20;99.90
14749;DHT22;7466;53.574;9.976;2022-12-07T10:48:12;4.30;99.90
14749;DHT22;7466;53.574;9.976;2022-12-07T10:50:52;4.30;99.90
14749;DHT22;7466;53.574;9.976;2022-12-07T10:53:33;4.40;99.90
14749;DHT22;7466;53.574;9.976;2022-12-07T10:56:16;4.50;99.90
14749;DHT22;7466;53.574;9.976;2022-12-07T10:58:53;4.50;99.90
14749;DHT22;7466;53.574;9.976;2022-12-07T11:01:27;4.60;99.90
14749;DHT22;7466;53.574;9.976;2022-12-07T11:04:14;4.70;99.90
14749;DHT22;7466;53.574;9.976;2022-12-07T11:06:50;4.90;99.90
14749;DHT22;7466;53.574;9.976;2022-12-07T11:09:51;4.90;99.90
14749;DHT22;7466;53.574;9.976;2022-12-07T11:12:30;4.80;99.90
14749;DHT22;7466;53.574;9.976;2022-12-07T11:15:02;4.80;99.90
14749;DHT22;7466;53.574;9.976;2022-12-07T11:17:36;4.60;99.90
14749;DHT22;7466;53.574;9.976;2022-12-07T11:20:20;4.60;99.90
14749;DHT22;7466;53.574;9.976;2022-12-07T11:22:54;4.60;99.90
14749;DHT22;7466;53.574;9.976;2022-12-07T11:25:31;4.60;99.90
14749;DHT22;7466;53.574;9.976;2022-12-07T11:28:11;4.60;99.90
14749;DHT22;7466;53.574;9.976;2022-12-07T11:30:47;4.50;99.90
14749;DHT22;7466;53.574;9.976;2022-12-07T11:33:20;4.50;99.90
14749;DHT22;7466;53.574;9.976;2022-12-07T11:35:55;4.50;99.90
14749;DHT22;7466;53.574;9.976;2022-12-07T11:38:41;4.50;99.90
14749;DHT22;7466;53.574;9.976;2022-12-07T11:41:10;4.50;99.90
14749;DHT22;7466;53.574;9.976;2022-12-07T11:43:50;4.50;99.90
14749;DHT22;7466;53.574;9.976;2022-12-07T11:46:20;4.40;99.90
14749;DHT22;7466;53.574;9.976;2022-12-07T11:48:58;4.40;99.90
14749;DHT22;7466;53.574;9.976;2022-12-07T11:51:29;4.50;99.90
14749;DHT22;7466;53.574;9.976;2022-12-07T11:54:03;4.60;99.90
14749;DHT22;7466;53.574;9.976;2022-12-07T11:56:35;4.60;99.90
14749;DHT22;7466;53.574;9.976;2022-12-07T11:59:08;4.60;99.90
14749;DHT22;7466;53.574;9.976;2022-12-07T12:01:45;4.50;99.90
14749;DHT22;7466;53.574;9.976;2022-12-07T12:04:31;4.60;99.90
14749;DHT22;7466;53.574;9.976;2022-12-07T12:06:59;4.70;99.90
14749;DHT22;7466;53.574;9.976;2022-12-07T12:09:30;4.80;99.90
14749;DHT22;7466;53.574;9.976;2022-12-07T12:12:22;4.80;99.90
14749;DHT22;7466;53.574;9.976;2022-12-07T12:15:03;4.80;99.90
14749;DHT22;7466;53.574;9.976;2022-12-07T12:18:01;4.80;99.90
14749;DHT22;7466;53.574;9.976;2022-12-07T12:20:38;4.90;99.90
14749;DHT22;7466;53.574;9.976;2022-12-07T12:23:11;4.90;99.90
14749;DHT22;7466;53.574;9.976;2022-12-07T12:25:41;4.90;99.90
14749;DHT22;7466;53.574;9.976;2022-12-07T12:28:20;4.90;99.90
14749;DHT22;7466;53.574;9.976;2022-12-07T12:31:05;4.90;99.90
14749;DHT22;7466;53.574;9.976;2022-12-07T12:33:33;4.90;99.90
14749;DHT22;7466;53.574;9.976;2022-12-07T12:36:23;4.80;99.90
14749;DHT22;7466;53.574;9.976;2022-12-07T12:39:08;4.90;99.90
14749;DHT22;7466;53.574;9.976;2022-12-07T12:41:57;5.00;99.90
14749;DHT22;7466;53.574;9.976;2022-12-07T12:50:24;5.30;99.90
14749;DHT22;7466;53.574;9.976;2022-12-07T12:53:11;5.40;99.90
14749;DHT22;7466;53.574;9.976;2022-12-07T12:56:09;5.50;99.90
14749;DHT22;7466;53.574;9.976;2022-12-07T12:58:42;5.60;99.90
14749;DHT22;7466;53.574;9.976;2022-12-07T13:01:45;5.40;99.90
14749;DHT22;7466;53.574;9.976;2022-12-07T13:04:47;5.40;99.90
14749;DHT22;7466;53.574;9.976;2022-12-07T13:07:49;5.60;99.90
14749;DHT22;7466;53.574;9.976;2022-12-07T13:10:42;5.50;99.90
14749;DHT22;7466;53.574;9.976;2022-12-07T13:13:29;5.70;99.90
14749;DHT22;7466;53.574;9.976;2022-12-07T13:22:41;5.60;3.40
14749;DHT22;7466;53.574;9.976;2022-12-07T13:25:12;5.50;1.00
14749;DHT22;7466;53.574;9.976;2022-12-07T13:27:48;5.10;1.00
14749;DHT22;7466;53.574;9.976;2022-12-07T13:30:19;5.10;1.00
14749;DHT22;7466;53.574;9.976;2022-12-07T13:32:52;5.10;1.00
14749;DHT22;7466;53.574;9.976;2022-12-07T13:35:33;5.10;1.00
14749;DHT22;7466;53.574;9.976;2022-12-07T13:38:13;5.00;1.00
14749;DHT22;7466;53.574;9.976;2022-12-07T13:40:42;5.00;1.00
14749;DHT22;7466;53.574;9.976;2022-12-07T13:43:25;5.10;1.00
14749;DHT22;7466;53.574;9.976;2022-12-07T13:45:56;5.00;1.00
14749;DHT22;7466;53.574;9.976;2022-12-07T13:48:30;4.80;1.00
14749;DHT22;7466;53.574;9.976;2022-12-07T13:50:59;4.90;1.00
14749;DHT22;7466;53.574;9.976;2022-12-07T13:53:28;5.00;1.00
14749;DHT22;7466;53.574;9.976;2022-12-07T13:55:56;5.00;1.00
14749;DHT22;7466;53.574;9.976;2022-12-07T13:58:23;5.00;1.00
14749;DHT22;7466;53.574;9.976;2022-12-07T14:00:50;4.80;1.00
14749;DHT22;7466;53.574;9.976;2022-12-07T14:03:28;4.90;1.00
14749;DHT22;7466;53.574;9.976;2022-12-07T14:09:14;4.60;1.00
14749;DHT22;7466;53.574;9.976;2022-12-07T14:11:43;4.60;1.00
14749;DHT22;7466;53.574;9.976;2022-12-07T14:14:15;4.60;1.00
14749;DHT22;7466;53.574;9.976;2022-12-07T14:16:43;4.50;1.00
14749;DHT22;7466;53.574;9.976;2022-12-07T14:22:20;4.40;1.00
14749;DHT22;7466;53.574;9.976;2022-12-07T14:24:49;4.30;1.00
14749;DHT22;7466;53.574;9.976;2022-12-07T14:27:17;4.20;1.00
14749;DHT22;7466;53.574;9.976;2022-12-07T14:29:45;4.20;1.00
14749;DHT22;7466;53.574;9.976;2022-12-07T14:32:24;4.20;1.00
14749;DHT22;7466;53.574;9.976;2022-12-07T14:35:08;4.10;1.00
14749;DHT22;7466;53.574;9.976;2022-12-07T14:37:37;4.10;1.00
14749;DHT22;7466;53.574;9.976;2022-12-07T14:40:06;4.00;1.00
14749;DHT22;7466;53.574;9.976;2022-12-07T14:42:34;4.00;1.00
14749;DHT22;7466;53.574;9.976;2022-12-07T14:45:01;3.90;1.00
14749;DHT22;7466;53.574;9.976;2022-12-07T14:47:28;3.90;1.00
14749;DHT22;7466;53.574;9.976;2022-12-07T14:49:55;3.80;1.00
14749;DHT22;7466;53.574;9.976;2022-12-07T14:52:24;3.70;1.00
14749;DHT22;7466;53.574;9.976;2022-12-07T14:54:53;3.70;1.00
14749;DHT22;7466;53.574;9.976;2022-12-07T14:57:22;3.60;1.00
14749;DHT22;7466;53.574;9.976;2022-12-07T14:59:49;3.50;1.00
14749;DHT22;7466;53.574;9.976;2022-12-07T15:02:16;3.50;1.00
14749;DHT22;7466;53.574;9.976;2022-12-07T15:04:43;3.40;1.00
14749;DHT22;7466;53.574;9.976;2022-12-07T15:07:15;3.40;1.00
14749;DHT22;7466;53.574;9.976;2022-12-07T15:09:43;3.40;1.00
14749;DHT22;7466;53.574;9.976;2022-12-07T15:12:09;3.30;1.00
14749;DHT22;7466;53.574;9.976;2022-12-07T15:14:40;3.30;1.00
14749;DHT22;7466;53.574;9.976;2022-12-07T15:17:10;3.30;1.00
14749;DHT22;7466;53.574;9.976;2022-12-07T15:19:38;3.30;1.00
14749;DHT22;7466;53.574;9.976;2022-12-07T15:22:05;3.20;1.00
14749;DHT22;7466;53.574;9.976;2022-12-07T15:24:33;3.20;1.00
14749;DHT22;7466;53.574;9.976;2022-12-07T15:27:00;3.20;1.00
14749;DHT22;7466;53.574;9.976;2022-12-07T15:29:26;3.10;1.00
14749;DHT22;7466;53.574;9.976;2022-12-07T15:31:55;3.10;1.00
14749;DHT22;7466;53.574;9.976;2022-12-07T15:34:23;3.10;1.00
14749;DHT22;7466;53.574;9.976;2022-12-07T15:36:50;3.00;1.00
14749;DHT22;7466;53.574;9.976;2022-12-07T15:39:17;3.00;1.00
14749;DHT22;7466;53.574;9.976;2022-12-07T15:41:43;2.90;1.00
14749;DHT22;7466;53.574;9.976;2022-12-07T15:44:12;2.90;1.00
14749;DHT22;7466;53.574;9.976;2022-12-07T15:46:57;2.90;1.00
14749;DHT22;7466;53.574;9.976;2022-12-07T15:49:24;2.80;1.00
14749;DHT22;7466;53.574;9.976;2022-12-07T15:51:51;2.70;1.00
14749;DHT22;7466;53.574;9.976;2022-12-07T15:54:21;2.70;1.00
14749;DHT22;7466;53.574;9.976;2022-12-07T15:56:49;2.60;1.00
14749;DHT22;7466;53.574;9.976;2022-12-07T15:59:16;2.60;1.00
14749;DHT22;7466;53.574;9.976;2022-12-07T16:01:43;2.50;1.00
14749;DHT22;7466;53.574;9.976;2022-12-07T16:04:12;2.50;1.00
14749;DHT22;7466;53.574;9.976;2022-12-07T16:06:39;2.50;1.00
14749;DHT22;7466;53.574;9.976;2022-12-07T16:09:06;2.50;1.00
14749;DHT22;7466;53.574;9.976;2022-12-07T16:11:33;2.40;1.00
14749;DHT22;7466;53.574;9.976;2022-12-07T16:14:00;2.40;1.00
14749;DHT22;7466;53.574;9.976;2022-12-07T16:16:27;2.40;1.00
14749;DHT22;7466;53.574;9.976;2022-12-07T16:18:54;2.40;1.00
14749;DHT22;7466;53.574;9.976;2022-12-07T16:21:23;2.40;1.00
14749;DHT22;7466;53.574;9.976;2022-12-07T16:23:49;2.40;1.00
14749;DHT22;7466;53.574;9.976;2022-12-07T16:26:18;2.40;1.00
14749;DHT22;7466;53.574;9.976;2022-12-07T16:28:47;2.40;1.00
14749;DHT22;7466;53.574;9.976;2022-12-07T16:31:16;2.40;1.00
14749;DHT22;7466;53.574;9.976;2022-12-07T16:33:44;2.30;1.00
14749;DHT22;7466;53.574;9.976;2022-12-07T16:36:15;2.30;1.00
14749;DHT22;7466;53.574;9.976;2022-12-07T16:38:44;2.30;1.00
14749;DHT22;7466;53.574;9.976;2022-12-07T16:41:11;2.30;1.00
14749;DHT22;7466;53.574;9.976;2022-12-07T16:43:38;2.20;3.60
14749;DHT22;7466;53.574;9.976;2022-12-07T16:46:05;2.20;7.30
14749;DHT22;7466;53.574;9.976;2022-12-07T16:48:35;2.20;11.80
14749;DHT22;7466;53.574;9.976;2022-12-07T16:51:04;2.20;18.00